Time;durP1;ratioP1;P1;durP2;ratioP2;P2;SDS_P1;SDS_P2;PMS_P1;PMS_P2;Temp;Humidity;BMP_temperature;BMP_pressure;BME280_temperature;BME280_humidity;BME280_pressure;Samples;Min_cycle;Max_cycle;Signal;HPM_P1;HPM_P2
2021/06/16 00:01:26;;;;;;;9.20;6.45;;;27.30;69.50;;;;;;5091932;23;20347;-75
2021/06/16 00:03:29;;;;;;;8.68;5.30;;;27.30;69.40;;;;;;5091512;23;20032;-76
2021/06/16 00:05:32;;;;;;;7.68;5.13;;;27.30;68.60;;;;;;5091055;23;20084;-70
2021/06/16 00:07:35;;;;;;;7.75;5.45;;;27.30;68.70;;;;;;5091905;23;20025;-71
2021/06/16 00:09:38;;;;;;;12.05;6.15;;;27.30;68.40;;;;;;5092066;23;20039;-73
2021/06/16 00:11:42;;;;;;;6.55;5.20;;;27.30;68.30;;;;;;5092989;23;20198;-71
2021/06/16 00:13:45;;;;;;;12.80;5.85;;;27.40;68.70;;;;;;5092609;23;20028;-73
2021/06/16 00:15:50;;;;;;;12.00;6.25;;;27.20;69.20;;;;;;5092443;23;20022;-76
2021/06/16 00:17:53;;;;;;;14.18;6.15;;;27.10;70.70;;;;;;5092637;23;20379;-76
2021/06/16 00:19:56;;;;;;;15.43;6.57;;;27.10;70.30;;;;;;5092531;23;20092;-77
2021/06/16 00:22:00;;;;;;;10.57;6.70;;;27.00;71.40;;;;;;5093149;23;20468;-74
2021/06/16 00:24:03;;;;;;;9.88;5.45;;;26.90;71.50;;;;;;5092616;23;20022;-75
2021/06/16 00:26:07;;;;;;;13.90;6.18;;;27.00;70.10;;;;;;5092687;23;20021;-75
2021/06/16 00:28:12;;;;;;;13.77;6.15;;;27.00;70.80;;;;;;5092851;23;20021;-76
2021/06/16 00:30:16;;;;;;;18.27;6.47;;;26.80;71.90;;;;;;5092028;23;20025;-72
2021/06/16 00:32:19;;;;;;;10.65;6.57;;;26.90;71.40;;;;;;5091556;23;20028;-71
2021/06/16 00:34:22;;;;;;;21.63;6.47;;;26.80;71.80;;;;;;5091088;23;20076;-75
2021/06/16 00:36:26;;;;;;;11.82;6.55;;;26.80;72.50;;;;;;5093625;23;20025;-78
2021/06/16 00:38:29;;;;;;;16.10;7.57;;;26.80;72.90;;;;;;5094327;23;20403;-75
2021/06/16 00:40:32;;;;;;;17.15;6.70;;;26.70;73.20;;;;;;5096519;23;20649;-72
2021/06/16 00:42:36;;;;;;;14.35;6.30;;;26.70;73.20;;;;;;5095718;23;20111;-72
2021/06/16 00:44:40;;;;;;;15.98;7.03;;;26.60;73.60;;;;;;5095776;23;20021;-76
2021/06/16 00:46:43;;;;;;;13.77;6.78;;;26.50;74.20;;;;;;5091148;23;20021;-74
2021/06/16 00:48:46;;;;;;;16.83;7.22;;;26.50;73.90;;;;;;5092552;23;20375;-75
2021/06/16 00:50:49;;;;;;;10.93;6.75;;;26.50;74.20;;;;;;5092140;23;20053;-74
2021/06/16 00:52:52;;;;;;;13.90;7.35;;;26.50;74.10;;;;;;5092316;23;20435;-72
2021/06/16 00:54:56;;;;;;;14.07;7.18;;;26.50;73.90;;;;;;5092769;23;20398;-79
2021/06/16 00:56:59;;;;;;;8.85;6.57;;;26.50;74.10;;;;;;5092204;23;20089;-72
2021/06/16 00:59:01;;;;;;;14.43;7.00;;;26.50;74.20;;;;;;5089457;23;20018;-70
2021/06/16 01:01:12;;;;;;;10.75;7.25;;;26.50;74.10;;;;;;5090318;23;20026;-74
2021/06/16 01:03:17;;;;;;;16.85;7.75;;;26.60;73.30;;;;;;5092144;23;20017;-76
2021/06/16 01:05:23;;;;;;;11.73;7.88;;;26.60;73.60;;;;;;5092270;23;20053;-74
2021/06/16 01:07:30;;;;;;;16.30;8.00;;;26.60;74.60;;;;;;5091772;23;20021;-83
2021/06/16 01:09:37;;;;;;;16.80;7.85;;;26.40;75.60;;;;;;5091823;23;20018;-74
2021/06/16 01:11:56;;;;;;;17.15;8.57;;;26.20;76.30;;;;;;5092348;23;20018;-75
2021/06/16 01:14:09;;;;;;;12.95;8.52;;;26.30;76.70;;;;;;5091931;23;20029;-70
2021/06/16 01:16:20;;;;;;;17.02;8.98;;;26.30;77.10;;;;;;5092402;23;20018;-80
2021/06/16 01:18:25;;;;;;;14.18;8.40;;;26.10;77.90;;;;;;5092058;23;20506;-79
2021/06/16 01:20:34;;;;;;;13.88;8.88;;;26.10;77.70;;;;;;5092413;23;20026;-79
2021/06/16 01:22:41;;;;;;;16.52;8.20;;;26.10;77.80;;;;;;5092056;23;20352;-73
2021/06/16 01:24:49;;;;;;;14.13;8.25;;;26.10;77.60;;;;;;5092330;23;20022;-71
2021/06/16 01:26:54;;;;;;;14.55;7.97;;;26.00;77.80;;;;;;5091772;23;20099;-71
2021/06/16 01:29:05;;;;;;;14.68;7.82;;;25.90;78.40;;;;;;5092124;23;20021;-74
2021/06/16 01:31:10;;;;;;;12.23;7.97;;;25.90;78.00;;;;;;5092021;23;20021;-71
2021/06/16 01:33:15;;;;;;;12.98;8.05;;;25.80;78.30;;;;;;5092037;23;20025;-77
2021/06/16 01:35:18;;;;;;;13.88;7.57;;;25.80;78.50;;;;;;5092480;23;20293;-77
2021/06/16 01:37:21;;;;;;;16.40;7.68;;;25.70;78.30;;;;;;5091964;23;20387;-74
2021/06/16 01:39:28;;;;;;;12.07;7.53;;;25.70;79.20;;;;;;5091976;23;20029;-73
2021/06/16 01:41:31;;;;;;;14.48;8.30;;;25.60;79.30;;;;;;5092145;23;20091;-80
2021/06/16 01:43:36;;;;;;;12.38;7.90;;;25.60;79.00;;;;;;5092520;23;20025;-78
2021/06/16 01:45:41;;;;;;;12.35;8.20;;;25.60;79.50;;;;;;5096029;23;20445;-73
2021/06/16 01:47:46;;;;;;;15.57;8.80;;;25.60;79.40;;;;;;5094684;23;20049;-81
2021/06/16 01:49:53;;;;;;;17.17;7.68;;;25.60;79.40;;;;;;5094568;23;20022;-75
2021/06/16 01:51:58;;;;;;;10.13;7.18;;;25.50;79.90;;;;;;5092317;23;20050;-75
2021/06/16 01:54:02;;;;;;;10.45;7.88;;;25.40;79.90;;;;;;5094500;23;20028;-74
2021/06/16 01:56:07;;;;;;;15.65;7.53;;;25.50;79.70;;;;;;5093045;23;20402;-71
2021/06/16 01:58:11;;;;;;;11.68;7.55;;;25.50;79.40;;;;;;5091577;23;20029;-74
2021/06/16 02:00:17;;;;;;;15.98;8.27;;;25.50;79.40;;;;;;5091393;23;20026;-71
2021/06/16 02:02:21;;;;;;;13.02;7.72;;;25.40;79.70;;;;;;5089773;23;20022;-70
2021/06/16 02:04:24;;;;;;;12.82;7.72;;;25.50;79.80;;;;;;5088265;23;20080;-71
2021/06/16 02:06:32;;;;;;;14.30;8.50;;;25.40;79.80;;;;;;5091008;23;20022;-71
2021/06/16 02:08:37;;;;;;;16.45;8.25;;;25.40;80.60;;;;;;5091380;23;20033;-76
2021/06/16 02:10:44;;;;;;;15.63;7.85;;;25.40;80.70;;;;;;5091831;23;20022;-79
2021/06/16 02:12:48;;;;;;;12.13;7.75;;;25.40;80.60;;;;;;5092227;23;20017;-74
2021/06/16 02:14:56;;;;;;;12.93;7.55;;;25.40;80.40;;;;;;5093411;23;20032;-80
2021/06/16 02:17:04;;;;;;;16.17;7.57;;;25.50;79.80;;;;;;5091738;23;20072;-73
2021/06/16 02:19:10;;;;;;;14.80;8.30;;;25.50;79.50;;;;;;5092685;23;20017;-73
2021/06/16 02:21:14;;;;;;;13.43;8.23;;;25.50;79.80;;;;;;5092978;23;20084;-78
2021/06/16 02:23:17;;;;;;;12.98;8.20;;;25.60;79.50;;;;;;5093144;23;20022;-81
2021/06/16 02:25:21;;;;;;;9.75;7.55;;;25.60;78.50;;;;;;5093529;23;20083;-72
2021/06/16 02:27:24;;;;;;;11.95;7.53;;;25.70;77.60;;;;;;5093069;23;20317;-82
2021/06/16 02:29:29;;;;;;;12.55;8.35;;;25.70;77.00;;;;;;5092758;23;20364;-78
2021/06/16 02:31:32;;;;;;;18.60;8.55;;;25.50;79.30;;;;;;5093191;23;20033;-73
2021/06/16 02:33:38;;;;;;;12.88;8.23;;;25.50;80.40;;;;;;5091921;23;20403;-72
2021/06/16 02:35:41;;;;;;;15.27;8.02;;;25.50;79.80;;;;;;5091956;23;20017;-70
2021/06/16 02:37:51;;;;;;;11.65;7.85;;;25.50;81.00;;;;;;5092764;23;20017;-73
2021/06/16 02:39:58;;;;;;;15.55;8.20;;;25.40;81.10;;;;;;5092953;23;20455;-78
2021/06/16 02:42:03;;;;;;;28.08;8.95;;;25.30;81.30;;;;;;5092360;23;20538;-74
2021/06/16 02:44:06;;;;;;;19.58;8.77;;;25.30;81.30;;;;;;5067060;23;20025;-78
2021/06/16 02:46:11;;;;;;;15.50;8.25;;;25.30;81.50;;;;;;5092996;23;20029;-80
2021/06/16 02:48:18;;;;;;;12.80;8.43;;;25.40;80.30;;;;;;5092690;23;20029;-81
2021/06/16 02:50:26;;;;;;;14.27;8.27;;;25.40;80.20;;;;;;5095404;23;20018;-73
2021/06/16 02:52:30;;;;;;;12.32;7.70;;;25.40;80.50;;;;;;5095498;23;20036;-72
2021/06/16 02:54:35;;;;;;;14.95;8.70;;;25.50;80.10;;;;;;5096029;23;20455;-76
2021/06/16 02:56:38;;;;;;;14.15;8.60;;;25.40;80.50;;;;;;5093004;23;20021;-73
2021/06/16 02:58:44;;;;;;;12.57;8.13;;;25.40;81.10;;;;;;5093517;23;20021;-73
2021/06/16 03:00:54;;;;;;;14.40;8.68;;;25.30;81.50;;;;;;5092860;23;20022;-78
2021/06/16 03:02:59;;;;;;;12.65;8.20;;;25.40;80.10;;;;;;5092811;23;20022;-76
2021/06/16 03:05:05;;;;;;;10.38;6.60;;;25.40;80.30;;;;;;5092867;23;20455;-78
2021/06/16 03:07:10;;;;;;;10.30;7.72;;;25.40;80.00;;;;;;5092518;23;20026;-71
2021/06/16 03:09:14;;;;;;;16.23;8.40;;;25.30;80.50;;;;;;5092813;23;20613;-81
2021/06/16 03:11:17;;;;;;;13.07;8.05;;;25.30;80.60;;;;;;5092361;23;20368;-80
2021/06/16 03:13:24;;;;;;;16.83;8.18;;;25.30;80.00;;;;;;5092460;23;20022;-81
2021/06/16 03:15:28;;;;;;;11.55;8.05;;;25.30;80.60;;;;;;5092767;23;20021;-75
2021/06/16 03:17:32;;;;;;;15.52;8.27;;;25.20;80.10;;;;;;5092278;23;20034;-77
2021/06/16 03:19:37;;;;;;;10.50;7.13;;;25.30;80.50;;;;;;5092105;23;20047;-80
2021/06/16 03:21:41;;;;;;;;;;;25.30;80.30;;;;;;5092868;23;20024;-80
2021/06/16 03:23:48;;;;;;;13.30;7.22;;;25.40;80.20;;;;;;5092117;23;19920;-80
2021/06/16 03:25:53;;;;;;;10.80;7.53;;;25.20;81.20;;;;;;5092710;23;20025;-80
2021/06/16 03:27:57;;;;;;;14.32;8.25;;;25.20;81.00;;;;;;5092062;23;20420;-79
2021/06/16 03:30:00;;;;;;;15.40;7.70;;;25.20;81.90;;;;;;5092095;23;20022;-79
2021/06/16 03:32:07;;;;;;;17.77;8.07;;;25.10;82.00;;;;;;5090371;23;20025;-75
2021/06/16 03:34:11;;;;;;;12.77;7.47;;;25.10;82.60;;;;;;5092209;23;20025;-71
2021/06/16 03:36:15;;;;;;;14.48;7.75;;;25.00;82.90;;;;;;5092660;23;20348;-73
2021/06/16 03:38:18;;;;;;;14.13;7.63;;;25.00;83.10;;;;;;5092528;23;20057;-73
2021/06/16 03:40:26;;;;;;;15.23;8.02;;;25.00;82.90;;;;;;5093876;23;20805;-72
2021/06/16 03:42:32;;;;;;;20.83;8.90;;;24.90;83.70;;;;;;5092457;23;20021;-76
2021/06/16 03:44:36;;;;;;;13.95;8.05;;;24.90;83.70;;;;;;5092789;23;20021;-79
2021/06/16 03:46:40;;;;;;;14.55;8.30;;;24.80;83.50;;;;;;5092552;23;20387;-78
2021/06/16 03:48:46;;;;;;;12.48;8.02;;;24.90;83.60;;;;;;5092430;23;20021;-77
2021/06/16 03:50:50;;;;;;;13.27;8.68;;;24.90;83.10;;;;;;5092608;23;20025;-72
2021/06/16 03:52:54;;;;;;;;;;;24.90;83.60;;;;;;5092593;23;20021;-75
2021/06/16 03:54:58;;;;;;;14.07;8.52;;;24.90;83.10;;;;;;5094202;23;19971;-75
2021/06/16 03:57:03;;;;;;;17.47;8.30;;;24.90;83.40;;;;;;5096149;23;20017;-72
2021/06/16 03:59:07;;;;;;;16.33;7.90;;;25.00;83.20;;;;;;5096002;23;20021;-79
2021/06/16 04:01:12;;;;;;;16.65;8.68;;;24.90;83.60;;;;;;5094270;23;20032;-78
2021/06/16 04:03:15;;;;;;;13.40;8.35;;;24.90;83.60;;;;;;5091580;23;20080;-72
2021/06/16 04:05:19;;;;;;;14.65;8.45;;;24.90;82.60;;;;;;5091818;23;20124;-79
2021/06/16 04:07:23;;;;;;;15.52;8.93;;;24.90;83.10;;;;;;5092591;23;20025;-79
2021/06/16 04:09:27;;;;;;;13.10;8.75;;;24.90;83.80;;;;;;5094355;23;20022;-78
2021/06/16 04:11:31;;;;;;;18.27;8.45;;;24.80;83.80;;;;;;5093203;23;20168;-73
2021/06/16 04:13:35;;;;;;;14.00;8.00;;;24.70;85.30;;;;;;5093833;23;20100;-78
2021/06/16 04:15:39;;;;;;;13.23;8.68;;;24.80;84.80;;;;;;5093940;23;20017;-77
2021/06/16 04:17:42;;;;;;;13.27;9.18;;;24.70;85.30;;;;;;5094074;23;20510;-74
2021/06/16 04:19:45;;;;;;;13.35;7.55;;;24.60;85.90;;;;;;5094115;23;20022;-70
2021/06/16 04:21:48;;;;;;;17.85;7.95;;;24.60;85.10;;;;;;5093523;23;20021;-72
2021/06/16 04:23:52;;;;;;;15.23;8.52;;;24.70;85.00;;;;;;5093349;23;20178;-77
2021/06/16 04:25:55;;;;;;;12.52;8.23;;;24.60;85.80;;;;;;5092241;23;20063;-75
2021/06/16 04:27:58;;;;;;;14.23;8.45;;;24.70;85.20;;;;;;5094239;23;20571;-71
2021/06/16 04:30:03;;;;;;;12.07;8.07;;;24.60;85.70;;;;;;5094181;23;20017;-70
2021/06/16 04:32:08;;;;;;;16.17;9.45;;;24.60;85.60;;;;;;5094496;23;20018;-72
2021/06/16 04:34:11;;;;;;;18.73;9.35;;;24.50;86.20;;;;;;5094164;23;20029;-74
2021/06/16 04:36:14;;;;;;;18.08;9.25;;;24.40;86.80;;;;;;5094686;23;20057;-75
2021/06/16 04:38:17;;;;;;;14.15;9.20;;;24.40;87.00;;;;;;5093629;23;20036;-75
2021/06/16 04:40:20;;;;;;;11.13;8.43;;;24.50;87.40;;;;;;5093822;23;20093;-73
2021/06/16 04:42:23;;;;;;;15.52;8.77;;;24.50;86.80;;;;;;5094354;23;20013;-76
2021/06/16 04:44:26;;;;;;;16.00;9.23;;;24.40;87.30;;;;;;5099391;23;20022;-73
2021/06/16 04:46:30;;;;;;;24.40;9.15;;;24.40;87.30;;;;;;5100999;23;20068;-73
2021/06/16 04:48:33;;;;;;;17.55;9.70;;;24.30;88.20;;;;;;5100773;23;20021;-73
2021/06/16 04:50:36;;;;;;;20.10;9.05;;;24.30;88.40;;;;;;5101090;23;20096;-71
2021/06/16 04:52:39;;;;;;;23.88;9.25;;;24.30;89.10;;;;;;5097270;23;20025;-78
2021/06/16 04:54:42;;;;;;;19.48;10.10;;;24.20;89.10;;;;;;5095053;23;20031;-79
2021/06/16 04:56:45;;;;;;;21.77;9.60;;;24.20;89.20;;;;;;5093618;23;20076;-82
2021/06/16 04:58:49;;;;;;;16.98;9.75;;;24.20;89.50;;;;;;5093186;23;20029;-72
2021/06/16 05:00:52;;;;;;;18.05;9.35;;;24.20;89.50;;;;;;5092313;23;20013;-77
2021/06/16 05:02:59;;;;;;;19.05;10.05;;;24.20;89.80;;;;;;5093177;23;20092;-73
2021/06/16 05:05:02;;;;;;;18.27;9.23;;;24.20;89.90;;;;;;5093671;23;20036;-81
2021/06/16 05:07:05;;;;;;;16.98;9.80;;;24.30;89.50;;;;;;5092335;23;20093;-73
2021/06/16 05:09:08;;;;;;;18.23;9.95;;;24.20;90.30;;;;;;5092613;23;20325;-75
2021/06/16 05:11:11;;;;;;;21.27;9.85;;;24.30;90.00;;;;;;5091685;23;20076;-71
2021/06/16 05:13:21;;;;;;;20.42;9.40;;;24.30;90.00;;;;;;5091868;23;20076;-80
2021/06/16 05:15:29;;;;;;;18.90;9.25;;;24.30;90.10;;;;;;5092104;23;20437;-80
2021/06/16 05:17:32;;;;;;;17.45;9.77;;;24.40;90.20;;;;;;5092471;23;20439;-78
2021/06/16 05:19:36;;;;;;;16.33;9.93;;;24.30;90.00;;;;;;5091871;23;20125;-75
2021/06/16 05:21:39;;;;;;;20.42;9.32;;;24.40;90.10;;;;;;5091824;23;20072;-71
2021/06/16 05:23:43;;;;;;;19.80;9.60;;;24.40;90.00;;;;;;5091237;23;20025;-72
2021/06/16 05:25:48;;;;;;;18.27;9.75;;;24.50;89.80;;;;;;5092099;23;20017;-75
2021/06/16 05:27:53;;;;;;;20.38;9.95;;;24.50;90.30;;;;;;5091511;23;20029;-74
2021/06/16 05:29:56;;;;;;;17.50;10.15;;;24.50;90.30;;;;;;5091879;23;20029;-74
2021/06/16 05:31:59;;;;;;;22.63;10.32;;;24.40;90.50;;;;;;5091337;23;20107;-77
2021/06/16 05:34:03;;;;;;;23.98;10.02;;;24.50;90.50;;;;;;5091792;23;20025;-73
2021/06/16 05:36:09;;;;;;;17.27;10.00;;;24.40;90.80;;;;;;5091743;23;20082;-73
2021/06/16 05:38:12;;;;;;;26.13;10.55;;;24.40;90.60;;;;;;5091213;23;20025;-77
2021/06/16 05:40:16;;;;;;;23.98;10.40;;;24.50;90.70;;;;;;5092167;23;20029;-76
2021/06/16 05:42:19;;;;;;;31.52;11.10;;;24.60;90.10;;;;;;5091445;23;20021;-77
2021/06/16 05:44:22;;;;;;;21.00;10.05;;;24.60;90.50;;;;;;5091894;23;20021;-77
2021/06/16 05:46:25;;;;;;;23.33;10.85;;;24.60;90.60;;;;;;5091886;23;20084;-74
2021/06/16 05:48:28;;;;;;;27.65;10.18;;;24.60;90.40;;;;;;5093416;23;20486;-79
2021/06/16 05:50:31;;;;;;;24.13;10.10;;;24.70;90.20;;;;;;5093499;23;20017;-75
2021/06/16 05:52:36;;;;;;;28.75;10.80;;;24.70;90.20;;;;;;5067466;23;20029;-74
2021/06/16 05:54:39;;;;;;;27.50;9.65;;;24.90;90.00;;;;;;5093653;23;20022;-74
2021/06/16 05:56:42;;;;;;;15.18;8.70;;;25.00;89.70;;;;;;5093943;23;20021;-80
2021/06/16 05:58:45;;;;;;;31.02;10.32;;;25.10;89.10;;;;;;5092678;23;20022;-72
2021/06/16 06:00:48;;;;;;;25.33;9.57;;;25.20;88.20;;;;;;5092237;23;20017;-70
2021/06/16 06:02:51;;;;;;;35.08;11.18;;;25.30;87.30;;;;;;5090719;23;20025;-77
2021/06/16 06:04:54;;;;;;;29.00;10.35;;;25.30;87.10;;;;;;5092420;23;20017;-76
2021/06/16 06:06:58;;;;;;;30.95;10.40;;;25.40;87.10;;;;;;5093011;23;20013;-76
2021/06/16 06:09:04;;;;;;;30.97;11.60;;;25.40;86.50;;;;;;5094528;23;20345;-72
2021/06/16 06:11:09;;;;;;;38.58;11.02;;;25.40;85.80;;;;;;5094123;23;20017;-76
2021/06/16 06:13:12;;;;;;;34.92;11.30;;;25.50;86.10;;;;;;5094265;23;20510;-81
2021/06/16 06:15:16;;;;;;;21.25;9.93;;;25.50;85.70;;;;;;5093435;23;20088;-79
2021/06/16 06:17:19;;;;;;;26.75;11.02;;;25.70;84.90;;;;;;5093202;23;20027;-77
2021/06/16 06:19:26;;;;;;;31.38;11.18;;;25.60;85.80;;;;;;5093459;23;20340;-76
2021/06/16 06:21:32;;;;;;;25.40;10.90;;;25.70;85.30;;;;;;5093186;23;20022;-78
2021/06/16 06:23:35;;;;;;;33.25;10.55;;;25.80;85.10;;;;;;5092877;23;20404;-79
2021/06/16 06:25:40;;;;;;;26.80;11.30;;;25.80;84.40;;;;;;5093115;23;20025;-79
2021/06/16 06:27:43;;;;;;;;;;;25.80;84.80;;;;;;5094271;23;20026;-80
2021/06/16 06:29:46;;;;;;;31.27;10.98;;;25.90;85.00;;;;;;5092971;23;19917;-76
2021/06/16 06:31:49;;;;;;;25.38;10.82;;;25.90;84.10;;;;;;5092559;23;20021;-74
2021/06/16 06:33:52;;;;;;;40.22;11.15;;;26.00;84.60;;;;;;5092153;23;20348;-80
2021/06/16 06:35:55;;;;;;;24.05;10.75;;;26.10;84.00;;;;;;5092787;23;20085;-78
2021/06/16 06:37:58;;;;;;;30.25;11.63;;;26.10;84.60;;;;;;5092797;23;20021;-82
2021/06/16 06:40:02;;;;;;;25.23;11.18;;;26.10;84.20;;;;;;5092932;23;20099;-73
2021/06/16 06:42:07;;;;;;;22.77;10.05;;;26.10;84.00;;;;;;5092280;23;20025;-76
2021/06/16 06:44:10;;;;;;;;;;;26.10;83.90;;;;;;5093297;23;20021;-77
2021/06/16 06:46:13;;;;;;;28.20;10.48;;;26.10;84.00;;;;;;5066373;23;19921;-73
2021/06/16 06:48:16;;;;;;;25.75;10.27;;;26.10;84.10;;;;;;5092145;23;20491;-75
2021/06/16 06:50:19;;;;;;;18.33;10.07;;;26.30;83.80;;;;;;5092653;23;20026;-80
2021/06/16 06:52:22;;;;;;;18.27;10.05;;;26.30;82.60;;;;;;5092991;23;20025;-75
2021/06/16 06:54:25;;;;;;;17.23;9.23;;;26.40;82.50;;;;;;5093113;23;20021;-77
2021/06/16 06:56:28;;;;;;;23.85;9.23;;;26.50;82.50;;;;;;5092707;23;20056;-72
2021/06/16 06:58:33;;;;;;;17.35;8.75;;;26.50;83.20;;;;;;5092531;23;20025;-83
2021/06/16 07:00:36;;;;;;;25.55;8.73;;;26.60;80.90;;;;;;5092987;23;20072;-81
2021/06/16 07:02:39;;;;;;;22.05;8.32;;;26.80;80.60;;;;;;5093515;23;20084;-81
2021/06/16 07:04:42;;;;;;;20.23;7.93;;;26.80;80.40;;;;;;5093043;23;20446;-81
2021/06/16 07:06:45;;;;;;;18.20;7.30;;;26.90;79.80;;;;;;5093436;23;20061;-79
2021/06/16 07:08:48;;;;;;;16.88;7.50;;;27.00;80.50;;;;;;5095779;23;20021;-78
2021/06/16 07:10:51;;;;;;;23.65;8.02;;;27.10;80.00;;;;;;5097144;23;20021;-77
2021/06/16 07:12:54;;;;;;;17.77;8.70;;;27.10;79.40;;;;;;5094234;23;20027;-82
2021/06/16 07:14:59;;;;;;;15.40;7.82;;;27.20;78.00;;;;;;5096112;23;20021;-74
2021/06/16 07:17:02;;;;;;;20.25;8.02;;;27.40;79.40;;;;;;5094117;23;20022;-70
2021/06/16 07:19:06;;;;;;;21.13;8.98;;;27.50;77.10;;;;;;5092178;23;20021;-70
2021/06/16 07:21:10;;;;;;;16.98;7.78;;;27.60;76.60;;;;;;5091255;23;20027;-72
2021/06/16 07:23:13;;;;;;;23.10;7.97;;;27.60;76.20;;;;;;5094010;23;20399;-83
2021/06/16 07:25:18;;;;;;;15.07;8.02;;;27.80;76.70;;;;;;5093466;23;20029;-77
2021/06/16 07:27:20;;;;;;;17.40;7.78;;;27.90;76.90;;;;;;5093806;23;20692;-78
2021/06/16 07:29:23;;;;;;;27.58;8.65;;;28.00;77.50;;;;;;5093478;23;20021;-75
2021/06/16 07:31:28;;;;;;;17.23;8.32;;;28.00;75.50;;;;;;5093330;23;20028;-78
2021/06/16 07:33:31;;;;;;;16.33;7.18;;;28.10;75.10;;;;;;5092843;23;20018;-74
2021/06/16 07:35:34;;;;;;;17.95;7.57;;;28.10;73.50;;;;;;5093359;23;20439;-72
2021/06/16 07:37:38;;;;;;;19.10;7.57;;;28.30;74.70;;;;;;5093417;23;20021;-83
2021/06/16 07:39:41;;;;;;;15.75;7.60;;;28.40;74.80;;;;;;5093309;23;20490;-76
2021/06/16 07:41:44;;;;;;;13.52;7.35;;;28.60;74.60;;;;;;5093584;23;20513;-74
2021/06/16 07:43:47;;;;;;;17.30;6.78;;;28.60;73.20;;;;;;5093667;23;20079;-77
2021/06/16 07:45:50;;;;;;;14.20;7.30;;;28.60;72.00;;;;;;5093731;23;20025;-80
2021/06/16 07:47:54;;;;;;;15.98;6.85;;;28.80;72.70;;;;;;5094310;23;20021;-74
2021/06/16 07:49:57;;;;;;;15.68;6.25;;;29.00;72.90;;;;;;5093039;23;20028;-77
2021/06/16 07:52:01;;;;;;;22.90;10.18;;;28.90;71.80;;;;;;5093157;23;20022;-75
2021/06/16 07:54:10;;;;;;;16.17;7.03;;;29.00;70.40;;;;;;5091930;23;20355;-72
2021/06/16 07:56:15;;;;;;;14.10;6.85;;;29.20;72.20;;;;;;5091692;23;20025;-82
2021/06/16 07:58:18;;;;;;;14.75;5.60;;;29.30;69.30;;;;;;5093705;23;20029;-82
2021/06/16 08:00:22;;;;;;;12.43;4.90;;;29.30;69.20;;;;;;5093046;23;20062;-74
2021/06/16 08:02:27;;;;;;;18.38;5.40;;;29.30;68.40;;;;;;5092836;23;20029;-76
2021/06/16 08:04:32;;;;;;;;;;;29.50;69.50;;;;;;5093282;23;20017;-79
2021/06/16 08:06:35;;;;;;;13.02;5.50;;;29.60;67.20;;;;;;5090139;23;19924;-72
2021/06/16 08:08:38;;;;;;;12.32;5.35;;;29.70;68.30;;;;;;5091545;23;20288;-69
2021/06/16 08:10:41;;;;;;;14.38;5.97;;;29.80;67.80;;;;;;5089499;23;20025;-73
2021/06/16 08:12:44;;;;;;;18.63;6.35;;;29.90;67.70;;;;;;5089371;23;20024;-77
2021/06/16 08:14:47;;;;;;;18.33;5.03;;;29.90;65.30;;;;;;5092035;23;20020;-72
2021/06/16 08:16:50;;;;;;;16.77;5.20;;;30.00;67.30;;;;;;5090363;23;20036;-71
2021/06/16 08:18:53;;;;;;;11.13;4.65;;;30.10;66.90;;;;;;5089047;23;20176;-72
2021/06/16 08:20:59;;;;;;;16.67;4.90;;;30.00;66.40;;;;;;5093344;23;20067;-79
2021/06/16 08:23:03;;;;;;;11.30;4.78;;;30.10;66.40;;;;;;5095464;23;20065;-76
2021/06/16 08:25:11;;;;;;;10.25;3.88;;;30.20;65.20;;;;;;5091807;23;20026;-77
2021/06/16 08:27:14;;;;;;;12.57;3.33;;;30.30;65.60;;;;;;5093193;23;20022;-74
2021/06/16 08:29:17;;;;;;;10.70;3.83;;;30.40;64.30;;;;;;5091152;23;20301;-69
2021/06/16 08:31:20;;;;;;;10.38;3.90;;;30.40;63.80;;;;;;5091684;23;20424;-74
2021/06/16 08:33:23;;;;;;;11.07;4.28;;;30.50;63.50;;;;;;5093270;23;20021;-79
2021/06/16 08:35:27;;;;;;;23.35;4.47;;;30.60;63.00;;;;;;5091058;23;20033;-72
2021/06/16 08:37:31;;;;;;;14.98;4.68;;;30.70;63.60;;;;;;5094108;23;20076;-75
2021/06/16 08:39:39;;;;;;;12.35;3.40;;;30.70;63.00;;;;;;5091461;23;20485;-72
2021/06/16 08:41:43;;;;;;;15.10;3.92;;;30.70;61.70;;;;;;5092391;23;20024;-71
2021/06/16 08:43:47;;;;;;;15.23;3.25;;;30.80;60.30;;;;;;5092111;23;20084;-79
2021/06/16 08:45:51;;;;;;;15.10;3.30;;;30.80;59.80;;;;;;5091724;23;20017;-71
2021/06/16 08:47:54;;;;;;;9.65;3.88;;;30.80;61.00;;;;;;5090811;23;20467;-77
2021/06/16 08:50:00;;;;;;;12.05;3.92;;;30.80;59.70;;;;;;5093598;23;20029;-73
2021/06/16 08:52:03;;;;;;;20.63;3.63;;;30.90;59.90;;;;;;5095382;23;20022;-77
2021/06/16 08:54:08;;;;;;;15.00;3.30;;;31.10;61.50;;;;;;5091910;23;20025;-78
2021/06/16 08:56:11;;;;;;;10.85;3.03;;;31.30;59.20;;;;;;5093917;23;20616;-80
2021/06/16 08:58:15;;;;;;;19.83;3.35;;;31.20;59.30;;;;;;5093252;23;20474;-70
2021/06/16 09:00:21;;;;;;;16.35;3.60;;;31.30;59.80;;;;;;5091583;23;20131;-72
2021/06/16 09:02:26;;;;;;;8.07;3.15;;;31.40;58.40;;;;;;5090640;23;20060;-72
2021/06/16 09:04:42;;;;;;;9.18;3.47;;;31.50;58.70;;;;;;5087940;23;20036;-72
2021/06/16 09:06:45;;;;;;;7.18;3.15;;;31.50;58.40;;;;;;5088611;23;20025;-71
2021/06/16 09:08:55;;;;;;;7.97;3.40;;;31.40;57.70;;;;;;5089535;23;20021;-72
2021/06/16 09:10:59;;;;;;;13.20;3.95;;;31.40;57.90;;;;;;5089286;23;20018;-70
2021/06/16 09:13:08;;;;;;;10.30;3.38;;;31.60;57.10;;;;;;5089251;23;20058;-75
2021/06/16 09:15:13;;;;;;;10.57;3.75;;;31.70;58.80;;;;;;5090109;23;20053;-75
2021/06/16 09:17:20;;;;;;;13.63;3.45;;;31.90;58.10;;;;;;5088931;23;20029;-72
2021/06/16 09:19:25;;;;;;;16.20;3.80;;;31.80;57.10;;;;;;5091476;23;20018;-76
2021/06/16 09:21:33;;;;;;;7.55;2.90;;;31.80;56.40;;;;;;5096674;23;20309;-73
2021/06/16 09:23:40;;;;;;;13.30;3.25;;;31.70;56.90;;;;;;5097657;23;20021;-75
2021/06/16 09:26:03;;;;;;;10.15;3.38;;;31.70;57.80;;;;;;5099608;23;20523;-74
2021/06/16 09:28:07;;;;;;;8.88;3.65;;;31.80;57.00;;;;;;5095379;23;20021;-74
2021/06/16 09:30:33;;;;;;;13.57;3.58;;;31.80;56.60;;;;;;5097105;23;20241;-74
2021/06/16 09:32:41;;;;;;;7.07;3.53;;;31.80;56.70;;;;;;5096980;23;20017;-71
2021/06/16 09:34:44;;;;;;;11.95;3.40;;;31.90;56.90;;;;;;5093713;23;20025;-72
2021/06/16 09:36:51;;;;;;;9.07;3.00;;;32.00;56.60;;;;;;5095442;23;20025;-77
2021/06/16 09:38:54;;;;;;;7.70;3.10;;;32.00;55.50;;;;;;5095270;23;20100;-76
2021/06/16 09:40:58;;;;;;;5.60;3.25;;;32.10;57.00;;;;;;5090807;23;20030;-72
2021/06/16 09:43:03;;;;;;;;;;;32.30;55.40;;;;;;5094376;23;20029;-74
2021/06/16 09:45:08;;;;;;;11.00;3.40;;;32.40;56.30;;;;;;5092783;23;19916;-73
2021/06/16 09:47:13;;;;;;;7.10;2.92;;;32.40;55.70;;;;;;5093446;23;20072;-74
2021/06/16 09:49:16;;;;;;;16.70;3.80;;;32.40;54.60;;;;;;5092492;23;20757;-77
2021/06/16 09:51:22;;;;;;;9.82;3.75;;;32.50;54.10;;;;;;5091815;23;20084;-74
2021/06/16 09:53:25;;;;;;;8.15;3.05;;;32.40;54.30;;;;;;5090715;23;20029;-75
2021/06/16 09:55:29;;;;;;;9.48;3.08;;;32.60;55.10;;;;;;5090838;23;20029;-80
2021/06/16 09:57:33;;;;;;;;;;;32.60;54.60;;;;;;5090727;23;20021;-73
2021/06/16 09:59:37;;;;;;;4.95;3.10;;;32.60;54.60;;;;;;5090272;23;19982;-71
2021/06/16 10:01:49;;;;;;;;;;;32.50;54.50;;;;;;5092735;23;20022;-71
2021/06/16 10:03:52;;;;;;;9.35;3.33;;;32.40;53.20;;;;;;5090298;23;20124;-74
2021/06/16 10:06:05;;;;;;;7.50;3.45;;;32.50;54.90;;;;;;5089513;23;20406;-81
2021/06/16 10:08:22;;;;;;;8.18;3.40;;;32.60;54.00;;;;;;5092324;23;20095;-79
2021/06/16 10:10:26;;;;;;;16.38;3.40;;;32.60;53.00;;;;;;5092934;23;20029;-70
2021/06/16 10:12:31;;;;;;;9.87;3.37;;;32.60;53.90;;;;;;5095395;23;20021;-71
2021/06/16 10:14:35;;;;;;;9.88;3.20;;;32.70;53.70;;;;;;5096599;23;20418;-82
2021/06/16 10:16:39;;;;;;;12.25;3.20;;;32.80;53.60;;;;;;5092413;23;20021;-75
2021/06/16 10:18:44;;;;;;;8.95;3.13;;;32.80;53.20;;;;;;5095011;23;20321;-76
2021/06/16 10:20:48;;;;;;;6.57;3.13;;;32.90;53.60;;;;;;5096029;23;20028;-71
2021/06/16 10:22:51;;;;;;;11.38;3.53;;;32.80;53.40;;;;;;5097666;23;20025;-73
2021/06/16 10:24:54;;;;;;;8.05;3.55;;;32.80;52.50;;;;;;5097051;23;20025;-76
2021/06/16 10:27:00;;;;;;;17.73;3.83;;;32.80;52.60;;;;;;5100291;23;20435;-75
2021/06/16 10:29:10;;;;;;;6.55;3.60;;;32.80;52.30;;;;;;5095331;23;20066;-72
2021/06/16 10:31:16;;;;;;;6.75;3.33;;;32.80;52.60;;;;;;5093861;23;20021;-72
2021/06/16 10:33:29;;;;;;;15.35;3.30;;;32.90;52.30;;;;;;5088358;23;20021;-75
2021/06/16 10:35:39;;;;;;;7.97;3.10;;;32.90;51.10;;;;;;5090148;23;20097;-71
2021/06/16 10:37:44;;;;;;;5.43;3.08;;;33.00;51.70;;;;;;5091087;23;20021;-71
2021/06/16 10:40:32;;;;;;;7.05;3.30;;;33.10;51.60;;;;;;5091508;23;20500;-71
2021/06/16 10:43:09;;;;;;;7.60;3.55;;;32.90;50.70;;;;;;5091577;23;20021;-71